sensor_id;sensor_type;location;lat;lon;timestamp;P1;durP1;ratioP1;P2;durP2;ratioP2
38499;SDS011;24269;51.894;4.622;2022-11-15T00:01:17;45.83;;;16.40;;
38499;SDS011;24269;51.894;4.622;2022-11-15T00:03:44;50.80;;;16.90;;
38499;SDS011;24269;51.894;4.622;2022-11-15T00:06:10;44.03;;;16.02;;
38499;SDS011;24269;51.894;4.622;2022-11-15T00:08:36;50.95;;;16.55;;
38499;SDS011;24269;51.894;4.622;2022-11-15T00:11:02;53.95;;;18.35;;
38499;SDS011;24269;51.894;4.622;2022-11-15T00:13:28;49.85;;;17.02;;
38499;SDS011;24269;51.894;4.622;2022-11-15T00:15:58;46.05;;;16.95;;
38499;SDS011;24269;51.894;4.622;2022-11-15T00:18:25;45.17;;;16.77;;
38499;SDS011;24269;51.894;4.622;2022-11-15T00:20:51;43.90;;;16.08;;
38499;SDS011;24269;51.894;4.622;2022-11-15T00:23:17;42.85;;;17.50;;
38499;SDS011;24269;51.894;4.622;2022-11-15T00:25:42;50.70;;;17.40;;
38499;SDS011;24269;51.894;4.622;2022-11-15T00:28:08;48.17;;;17.42;;
38499;SDS011;24269;51.894;4.622;2022-11-15T00:30:34;49.03;;;17.58;;
38499;SDS011;24269;51.894;4.622;2022-11-15T00:33:03;47.42;;;16.35;;
38499;SDS011;24269;51.894;4.622;2022-11-15T00:35:31;51.75;;;18.27;;
38499;SDS011;24269;51.894;4.622;2022-11-15T00:37:58;51.78;;;17.77;;
38499;SDS011;24269;51.894;4.622;2022-11-15T00:40:24;47.13;;;17.35;;
38499;SDS011;24269;51.894;4.622;2022-11-15T00:42:50;50.00;;;17.88;;
38499;SDS011;24269;51.894;4.622;2022-11-15T00:45:15;48.28;;;16.77;;
38499;SDS011;24269;51.894;4.622;2022-11-15T00:47:43;52.17;;;18.63;;
38499;SDS011;24269;51.894;4.622;2022-11-15T00:50:10;50.28;;;17.67;;
38499;SDS011;24269;51.894;4.622;2022-11-15T00:52:36;51.83;;;18.33;;
38499;SDS011;24269;51.894;4.622;2022-11-15T00:55:01;47.15;;;17.08;;
38499;SDS011;24269;51.894;4.622;2022-11-15T00:57:27;52.45;;;18.55;;
38499;SDS011;24269;51.894;4.622;2022-11-15T00:59:53;52.42;;;17.52;;
38499;SDS011;24269;51.894;4.622;2022-11-15T01:02:18;53.22;;;19.40;;
38499;SDS011;24269;51.894;4.622;2022-11-15T01:04:44;48.63;;;18.17;;
38499;SDS011;24269;51.894;4.622;2022-11-15T01:07:10;55.38;;;18.00;;
38499;SDS011;24269;51.894;4.622;2022-11-15T01:09:36;51.20;;;18.98;;
38499;SDS011;24269;51.894;4.622;2022-11-15T01:12:01;47.97;;;17.67;;
38499;SDS011;24269;51.894;4.622;2022-11-15T01:14:27;56.05;;;18.80;;
38499;SDS011;24269;51.894;4.622;2022-11-15T01:16:53;53.00;;;18.80;;
38499;SDS011;24269;51.894;4.622;2022-11-15T01:19:19;54.88;;;17.73;;
38499;SDS011;24269;51.894;4.622;2022-11-15T01:21:44;48.08;;;17.40;;
38499;SDS011;24269;51.894;4.622;2022-11-15T01:24:11;54.13;;;19.20;;
38499;SDS011;24269;51.894;4.622;2022-11-15T01:26:37;51.90;;;17.67;;
38499;SDS011;24269;51.894;4.622;2022-11-15T01:29:03;58.70;;;19.63;;
38499;SDS011;24269;51.894;4.622;2022-11-15T01:31:29;52.53;;;19.52;;
38499;SDS011;24269;51.894;4.622;2022-11-15T01:33:55;54.33;;;18.52;;
38499;SDS011;24269;51.894;4.622;2022-11-15T01:36:21;54.15;;;19.00;;
38499;SDS011;24269;51.894;4.622;2022-11-15T01:38:47;50.28;;;17.98;;
38499;SDS011;24269;51.894;4.622;2022-11-15T01:41:22;57.13;;;19.38;;
38499;SDS011;24269;51.894;4.622;2022-11-15T01:46:53;61.63;;;20.48;;
38499;SDS011;24269;51.894;4.622;2022-11-15T01:49:19;53.78;;;19.85;;
38499;SDS011;24269;51.894;4.622;2022-11-15T01:51:47;52.53;;;18.83;;
38499;SDS011;24269;51.894;4.622;2022-11-15T01:54:14;54.83;;;19.63;;
38499;SDS011;24269;51.894;4.622;2022-11-15T01:56:46;56.47;;;19.33;;
38499;SDS011;24269;51.894;4.622;2022-11-15T01:59:17;47.80;;;18.38;;
38499;SDS011;24269;51.894;4.622;2022-11-15T02:01:44;56.13;;;20.70;;
38499;SDS011;24269;51.894;4.622;2022-11-15T02:04:12;57.58;;;19.15;;
38499;SDS011;24269;51.894;4.622;2022-11-15T02:06:41;56.50;;;19.48;;
38499;SDS011;24269;51.894;4.622;2022-11-15T02:09:07;47.17;;;18.95;;
38499;SDS011;24269;51.894;4.622;2022-11-15T02:11:33;50.50;;;18.92;;
38499;SDS011;24269;51.894;4.622;2022-11-15T02:13:59;52.55;;;19.08;;
38499;SDS011;24269;51.894;4.622;2022-11-15T02:38:40;39.72;;;16.98;;
38499;SDS011;24269;51.894;4.622;2022-11-15T02:41:15;45.20;;;18.38;;
38499;SDS011;24269;51.894;4.622;2022-11-15T02:43:47;45.05;;;17.70;;
38499;SDS011;24269;51.894;4.622;2022-11-15T02:49:16;45.47;;;19.02;;
38499;SDS011;24269;51.894;4.622;2022-11-15T02:51:43;42.92;;;17.08;;
38499;SDS011;24269;51.894;4.622;2022-11-15T02:54:15;40.28;;;16.67;;
38499;SDS011;24269;51.894;4.622;2022-11-15T02:56:47;36.70;;;17.20;;
38499;SDS011;24269;51.894;4.622;2022-11-15T02:59:31;37.22;;;16.88;;
38499;SDS011;24269;51.894;4.622;2022-11-15T03:02:51;38.20;;;17.17;;
38499;SDS011;24269;51.894;4.622;2022-11-15T03:05:22;37.17;;;15.82;;
38499;SDS011;24269;51.894;4.622;2022-11-15T03:18:52;33.92;;;14.85;;
38499;SDS011;24269;51.894;4.622;2022-11-15T03:21:22;29.90;;;14.75;;
38499;SDS011;24269;51.894;4.622;2022-11-15T03:23:49;30.25;;;14.38;;
38499;SDS011;24269;51.894;4.622;2022-11-15T03:26:16;34.13;;;15.50;;
38499;SDS011;24269;51.894;4.622;2022-11-15T03:28:50;32.67;;;13.98;;
38499;SDS011;24269;51.894;4.622;2022-11-15T03:31:19;30.55;;;13.45;;
38499;SDS011;24269;51.894;4.622;2022-11-15T03:34:06;32.72;;;14.77;;
38499;SDS011;24269;51.894;4.622;2022-11-15T03:36:36;26.40;;;13.00;;
38499;SDS011;24269;51.894;4.622;2022-11-15T03:39:04;31.02;;;14.13;;
38499;SDS011;24269;51.894;4.622;2022-11-15T03:41:57;32.58;;;14.43;;
38499;SDS011;24269;51.894;4.622;2022-11-15T03:44:28;32.15;;;13.32;;
38499;SDS011;24269;51.894;4.622;2022-11-15T03:47:31;27.75;;;12.88;;
38499;SDS011;24269;51.894;4.622;2022-11-15T03:50:22;25.63;;;12.52;;
38499;SDS011;24269;51.894;4.622;2022-11-15T03:52:48;28.52;;;13.07;;
38499;SDS011;24269;51.894;4.622;2022-11-15T03:55:18;29.55;;;13.43;;
38499;SDS011;24269;51.894;4.622;2022-11-15T03:57:45;26.97;;;12.70;;
38499;SDS011;24269;51.894;4.622;2022-11-15T04:00:14;23.40;;;12.57;;
38499;SDS011;24269;51.894;4.622;2022-11-15T04:02:40;23.45;;;12.20;;
38499;SDS011;24269;51.894;4.622;2022-11-15T04:05:05;23.38;;;12.10;;
38499;SDS011;24269;51.894;4.622;2022-11-15T04:07:31;23.63;;;12.18;;
38499;SDS011;24269;51.894;4.622;2022-11-15T04:09:57;22.95;;;11.85;;
38499;SDS011;24269;51.894;4.622;2022-11-15T04:12:31;29.27;;;11.27;;
38499;SDS011;24269;51.894;4.622;2022-11-15T04:20:01;19.42;;;11.18;;
38499;SDS011;24269;51.894;4.622;2022-11-15T04:22:46;22.08;;;10.88;;
38499;SDS011;24269;51.894;4.622;2022-11-15T04:25:31;22.30;;;10.38;;
38499;SDS011;24269;51.894;4.622;2022-11-15T04:27:56;24.02;;;11.15;;
38499;SDS011;24269;51.894;4.622;2022-11-15T04:30:22;22.48;;;11.10;;
38499;SDS011;24269;51.894;4.622;2022-11-15T04:32:47;20.30;;;9.88;;
38499;SDS011;24269;51.894;4.622;2022-11-15T04:35:13;20.58;;;10.68;;
38499;SDS011;24269;51.894;4.622;2022-11-15T04:37:39;21.55;;;10.02;;
38499;SDS011;24269;51.894;4.622;2022-11-15T04:40:04;19.27;;;9.60;;
38499;SDS011;24269;51.894;4.622;2022-11-15T04:42:30;17.58;;;8.35;;
38499;SDS011;24269;51.894;4.622;2022-11-15T04:44:56;19.40;;;9.30;;
38499;SDS011;24269;51.894;4.622;2022-11-15T04:47:22;18.70;;;9.30;;
38499;SDS011;24269;51.894;4.622;2022-11-15T04:49:47;17.73;;;8.98;;
38499;SDS011;24269;51.894;4.622;2022-11-15T04:52:13;16.60;;;8.68;;
38499;SDS011;24269;51.894;4.622;2022-11-15T04:54:38;19.98;;;8.88;;
38499;SDS011;24269;51.894;4.622;2022-11-15T04:57:04;20.88;;;8.68;;
38499;SDS011;24269;51.894;4.622;2022-11-15T04:59:29;17.75;;;9.02;;
38499;SDS011;24269;51.894;4.622;2022-11-15T05:01:55;16.00;;;8.05;;
38499;SDS011;24269;51.894;4.622;2022-11-15T05:04:20;15.98;;;8.55;;
38499;SDS011;24269;51.894;4.622;2022-11-15T05:06:50;18.75;;;8.23;;
38499;SDS011;24269;51.894;4.622;2022-11-15T05:09:19;16.25;;;8.32;;
38499;SDS011;24269;51.894;4.622;2022-11-15T05:11:45;20.05;;;8.60;;
38499;SDS011;24269;51.894;4.622;2022-11-15T05:14:11;17.58;;;7.55;;
38499;SDS011;24269;51.894;4.622;2022-11-15T05:16:38;17.13;;;7.35;;
38499;SDS011;24269;51.894;4.622;2022-11-15T05:19:04;14.27;;;7.38;;
38499;SDS011;24269;51.894;4.622;2022-11-15T05:21:30;15.27;;;7.28;;
38499;SDS011;24269;51.894;4.622;2022-11-15T05:23:56;13.90;;;7.18;;
38499;SDS011;24269;51.894;4.622;2022-11-15T05:26:22;12.27;;;7.60;;
38499;SDS011;24269;51.894;4.622;2022-11-15T05:28:51;15.75;;;6.85;;
38499;SDS011;24269;51.894;4.622;2022-11-15T05:31:18;13.32;;;6.63;;
38499;SDS011;24269;51.894;4.622;2022-11-15T05:33:44;11.65;;;6.07;;
38499;SDS011;24269;51.894;4.622;2022-11-15T05:36:17;11.63;;;5.75;;
38499;SDS011;24269;51.894;4.622;2022-11-15T05:38:50;10.25;;;5.70;;
38499;SDS011;24269;51.894;4.622;2022-11-15T05:41:17;11.00;;;5.57;;
38499;SDS011;24269;51.894;4.622;2022-11-15T05:43:45;13.32;;;5.70;;
38499;SDS011;24269;51.894;4.622;2022-11-15T05:46:12;12.43;;;5.75;;
38499;SDS011;24269;51.894;4.622;2022-11-15T05:48:39;13.70;;;5.05;;
38499;SDS011;24269;51.894;4.622;2022-11-15T05:51:08;13.18;;;5.32;;
38499;SDS011;24269;51.894;4.622;2022-11-15T05:53:33;11.02;;;5.30;;
38499;SDS011;24269;51.894;4.622;2022-11-15T05:56:02;12.50;;;5.20;;
38499;SDS011;24269;51.894;4.622;2022-11-15T05:58:28;12.55;;;5.28;;
38499;SDS011;24269;51.894;4.622;2022-11-15T06:00:57;11.93;;;5.43;;
38499;SDS011;24269;51.894;4.622;2022-11-15T06:03:22;9.35;;;5.07;;
38499;SDS011;24269;51.894;4.622;2022-11-15T06:05:48;10.23;;;4.47;;
38499;SDS011;24269;51.894;4.622;2022-11-15T06:08:13;8.95;;;4.20;;
38499;SDS011;24269;51.894;4.622;2022-11-15T06:10:39;10.90;;;4.68;;
38499;SDS011;24269;51.894;4.622;2022-11-15T06:13:04;11.10;;;4.45;;
38499;SDS011;24269;51.894;4.622;2022-11-15T06:15:31;11.85;;;4.57;;
38499;SDS011;24269;51.894;4.622;2022-11-15T06:17:58;7.53;;;4.13;;
38499;SDS011;24269;51.894;4.622;2022-11-15T06:20:28;9.27;;;4.07;;
38499;SDS011;24269;51.894;4.622;2022-11-15T06:23:01;12.27;;;5.05;;
38499;SDS011;24269;51.894;4.622;2022-11-15T06:25:28;10.02;;;4.43;;
38499;SDS011;24269;51.894;4.622;2022-11-15T06:27:55;9.80;;;3.83;;
38499;SDS011;24269;51.894;4.622;2022-11-15T06:30:22;10.85;;;4.13;;
38499;SDS011;24269;51.894;4.622;2022-11-15T06:32:49;13.82;;;4.50;;
38499;SDS011;24269;51.894;4.622;2022-11-15T06:35:14;8.70;;;4.18;;
38499;SDS011;24269;51.894;4.622;2022-11-15T06:37:40;10.60;;;3.72;;
38499;SDS011;24269;51.894;4.622;2022-11-15T06:40:07;7.38;;;3.75;;
38499;SDS011;24269;51.894;4.622;2022-11-15T06:42:33;9.23;;;4.25;;
38499;SDS011;24269;51.894;4.622;2022-11-15T06:44:59;8.65;;;4.32;;
38499;SDS011;24269;51.894;4.622;2022-11-15T06:47:24;6.93;;;3.80;;
38499;SDS011;24269;51.894;4.622;2022-11-15T06:49:50;5.78;;;3.42;;
38499;SDS011;24269;51.894;4.622;2022-11-15T06:52:16;10.93;;;3.95;;
38499;SDS011;24269;51.894;4.622;2022-11-15T06:54:44;9.07;;;4.05;;
38499;SDS011;24269;51.894;4.622;2022-11-15T06:57:09;7.90;;;3.35;;
38499;SDS011;24269;51.894;4.622;2022-11-15T06:59:35;7.05;;;3.40;;
38499;SDS011;24269;51.894;4.622;2022-11-15T07:02:01;7.88;;;3.42;;
38499;SDS011;24269;51.894;4.622;2022-11-15T07:04:27;8.07;;;3.40;;
38499;SDS011;24269;51.894;4.622;2022-11-15T07:06:52;10.95;;;3.40;;
38499;SDS011;24269;51.894;4.622;2022-11-15T07:09:18;7.40;;;2.90;;
38499;SDS011;24269;51.894;4.622;2022-11-15T07:11:44;4.85;;;2.53;;
38499;SDS011;24269;51.894;4.622;2022-11-15T07:14:12;5.72;;;2.33;;
38499;SDS011;24269;51.894;4.622;2022-11-15T07:16:38;8.63;;;2.80;;
38499;SDS011;24269;51.894;4.622;2022-11-15T07:19:04;6.40;;;2.58;;
38499;SDS011;24269;51.894;4.622;2022-11-15T07:21:31;10.40;;;3.03;;
38499;SDS011;24269;51.894;4.622;2022-11-15T07:23:58;8.60;;;3.88;;
38499;SDS011;24269;51.894;4.622;2022-11-15T07:26:23;8.57;;;3.55;;
38499;SDS011;24269;51.894;4.622;2022-11-15T07:28:49;9.02;;;3.25;;
38499;SDS011;24269;51.894;4.622;2022-11-15T07:31:14;8.27;;;3.83;;
38499;SDS011;24269;51.894;4.622;2022-11-15T07:33:40;6.68;;;3.50;;
38499;SDS011;24269;51.894;4.622;2022-11-15T07:36:06;9.27;;;3.65;;
38499;SDS011;24269;51.894;4.622;2022-11-15T07:38:33;11.32;;;4.00;;
38499;SDS011;24269;51.894;4.622;2022-11-15T07:41:01;9.40;;;3.80;;
38499;SDS011;24269;51.894;4.622;2022-11-15T07:43:37;10.07;;;4.95;;
38499;SDS011;24269;51.894;4.622;2022-11-15T07:46:06;8.40;;;4.43;;
38499;SDS011;24269;51.894;4.622;2022-11-15T07:48:34;9.93;;;4.22;;
38499;SDS011;24269;51.894;4.622;2022-11-15T07:51:05;8.90;;;4.07;;
38499;SDS011;24269;51.894;4.622;2022-11-15T07:53:31;8.07;;;4.53;;
38499;SDS011;24269;51.894;4.622;2022-11-15T07:55:57;8.35;;;4.18;;
38499;SDS011;24269;51.894;4.622;2022-11-15T07:58:23;9.70;;;4.88;;
38499;SDS011;24269;51.894;4.622;2022-11-15T08:00:48;6.47;;;3.85;;
38499;SDS011;24269;51.894;4.622;2022-11-15T08:03:14;8.45;;;4.07;;
38499;SDS011;24269;51.894;4.622;2022-11-15T08:05:41;12.07;;;3.88;;
38499;SDS011;24269;51.894;4.622;2022-11-15T08:08:08;9.38;;;4.38;;
38499;SDS011;24269;51.894;4.622;2022-11-15T08:10:36;9.60;;;4.40;;
38499;SDS011;24269;51.894;4.622;2022-11-15T08:13:09;9.65;;;4.22;;
38499;SDS011;24269;51.894;4.622;2022-11-15T08:15:36;10.05;;;4.60;;
38499;SDS011;24269;51.894;4.622;2022-11-15T08:18:04;9.00;;;4.63;;
38499;SDS011;24269;51.894;4.622;2022-11-15T08:20:37;12.02;;;4.65;;
38499;SDS011;24269;51.894;4.622;2022-11-15T08:23:03;10.85;;;4.47;;
38499;SDS011;24269;51.894;4.622;2022-11-15T08:25:31;8.15;;;4.15;;
38499;SDS011;24269;51.894;4.622;2022-11-15T08:27:59;11.25;;;4.68;;
38499;SDS011;24269;51.894;4.622;2022-11-15T08:30:28;8.77;;;4.28;;
38499;SDS011;24269;51.894;4.622;2022-11-15T08:32:55;10.52;;;3.78;;
38499;SDS011;24269;51.894;4.622;2022-11-15T08:35:22;8.57;;;3.78;;
38499;SDS011;24269;51.894;4.622;2022-11-15T08:37:52;9.60;;;4.05;;
38499;SDS011;24269;51.894;4.622;2022-11-15T08:40:18;10.85;;;4.13;;
38499;SDS011;24269;51.894;4.622;2022-11-15T08:42:46;8.23;;;4.00;;
38499;SDS011;24269;51.894;4.622;2022-11-15T08:45:13;10.50;;;4.43;;
38499;SDS011;24269;51.894;4.622;2022-11-15T08:47:40;9.85;;;4.35;;
38499;SDS011;24269;51.894;4.622;2022-11-15T08:50:06;11.05;;;4.03;;
38499;SDS011;24269;51.894;4.622;2022-11-15T08:52:32;9.98;;;3.78;;
38499;SDS011;24269;51.894;4.622;2022-11-15T08:54:58;10.32;;;3.97;;
38499;SDS011;24269;51.894;4.622;2022-11-15T08:57:23;9.15;;;3.97;;
38499;SDS011;24269;51.894;4.622;2022-11-15T08:59:50;7.15;;;3.50;;
38499;SDS011;24269;51.894;4.622;2022-11-15T09:02:17;7.75;;;3.78;;
38499;SDS011;24269;51.894;4.622;2022-11-15T09:04:43;6.18;;;3.38;;
38499;SDS011;24269;51.894;4.622;2022-11-15T09:07:09;8.27;;;3.80;;
38499;SDS011;24269;51.894;4.622;2022-11-15T09:09:36;9.60;;;3.13;;
38499;SDS011;24269;51.894;4.622;2022-11-15T09:12:06;9.15;;;3.80;;
38499;SDS011;24269;51.894;4.622;2022-11-15T09:14:33;7.78;;;3.20;;
38499;SDS011;24269;51.894;4.622;2022-11-15T09:16:59;8.82;;;3.75;;
38499;SDS011;24269;51.894;4.622;2022-11-15T09:19:26;7.35;;;3.70;;
38499;SDS011;24269;51.894;4.622;2022-11-15T09:21:52;9.18;;;3.20;;
38499;SDS011;24269;51.894;4.622;2022-11-15T09:24:17;8.55;;;3.30;;
38499;SDS011;24269;51.894;4.622;2022-11-15T09:26:43;6.53;;;3.00;;
38499;SDS011;24269;51.894;4.622;2022-11-15T09:29:09;6.95;;;3.03;;
38499;SDS011;24269;51.894;4.622;2022-11-15T09:31:35;8.50;;;2.70;;
38499;SDS011;24269;51.894;4.622;2022-11-15T09:34:00;8.32;;;2.30;;
38499;SDS011;24269;51.894;4.622;2022-11-15T09:36:26;4.15;;;2.13;;
38499;SDS011;24269;51.894;4.622;2022-11-15T09:38:51;5.75;;;2.10;;
38499;SDS011;24269;51.894;4.622;2022-11-15T09:41:38;5.13;;;2.53;;
38499;SDS011;24269;51.894;4.622;2022-11-15T09:49:57;3.45;;;1.70;;
38499;SDS011;24269;51.894;4.622;2022-11-15T09:52:25;4.22;;;1.67;;
38499;SDS011;24269;51.894;4.622;2022-11-15T09:54:51;6.30;;;1.98;;
38499;SDS011;24269;51.894;4.622;2022-11-15T09:57:24;5.03;;;1.80;;
38499;SDS011;24269;51.894;4.622;2022-11-15T10:05:29;3.78;;;1.80;;
38499;SDS011;24269;51.894;4.622;2022-11-15T10:10:41;5.00;;;2.13;;
38499;SDS011;24269;51.894;4.622;2022-11-15T10:13:25;5.25;;;2.15;;
38499;SDS011;24269;51.894;4.622;2022-11-15T10:19:04;6.20;;;1.73;;
38499;SDS011;24269;51.894;4.622;2022-11-15T10:22:10;5.13;;;1.77;;
38499;SDS011;24269;51.894;4.622;2022-11-15T10:24:40;3.58;;;1.67;;
38499;SDS011;24269;51.894;4.622;2022-11-15T10:27:20;4.45;;;1.50;;
38499;SDS011;24269;51.894;4.622;2022-11-15T10:29:47;5.18;;;1.80;;
38499;SDS011;24269;51.894;4.622;2022-11-15T10:32:16;4.25;;;1.60;;
38499;SDS011;24269;51.894;4.622;2022-11-15T10:34:44;5.93;;;1.75;;
38499;SDS011;24269;51.894;4.622;2022-11-15T10:37:11;4.60;;;1.55;;
38499;SDS011;24269;51.894;4.622;2022-11-15T10:39:37;5.88;;;1.50;;
38499;SDS011;24269;51.894;4.622;2022-11-15T10:42:48;6.78;;;1.65;;
38499;SDS011;24269;51.894;4.622;2022-11-15T10:44:53;5.15;;;1.48;;
38499;SDS011;24269;51.894;4.622;2022-11-15T10:50:01;4.43;;;1.50;;
38499;SDS011;24269;51.894;4.622;2022-11-15T10:52:57;5.05;;;1.60;;
38499;SDS011;24269;51.894;4.622;2022-11-15T10:55:27;3.00;;;1.30;;
38499;SDS011;24269;51.894;4.622;2022-11-15T10:58:06;2.97;;;1.30;;
38499;SDS011;24269;51.894;4.622;2022-11-15T11:03:34;3.45;;;1.40;;
38499;SDS011;24269;51.894;4.622;2022-11-15T11:08:52;2.83;;;1.30;;
38499;SDS011;24269;51.894;4.622;2022-11-15T11:11:25;5.47;;;1.33;;
38499;SDS011;24269;51.894;4.622;2022-11-15T11:14:19;2.88;;;0.90;;
38499;SDS011;24269;51.894;4.622;2022-11-15T11:17:34;3.42;;;1.88;;
38499;SDS011;24269;51.894;4.622;2022-11-15T11:19:56;5.20;;;0.98;;
38499;SDS011;24269;51.894;4.622;2022-11-15T11:22:37;2.53;;;1.10;;
38499;SDS011;24269;51.894;4.622;2022-11-15T11:30:23;3.63;;;1.42;;
38499;SDS011;24269;51.894;4.622;2022-11-15T11:35:59;4.13;;;1.13;;
38499;SDS011;24269;51.894;4.622;2022-11-15T11:38:47;4.35;;;1.10;;
38499;SDS011;24269;51.894;4.622;2022-11-15T11:47:00;4.82;;;1.13;;
38499;SDS011;24269;51.894;4.622;2022-11-15T11:49:46;3.25;;;1.10;;
38499;SDS011;24269;51.894;4.622;2022-11-15T11:52:28;3.15;;;0.57;;
38499;SDS011;24269;51.894;4.622;2022-11-15T12:13:38;3.53;;;0.80;;
38499;SDS011;24269;51.894;4.622;2022-11-15T12:16:13;3.38;;;0.98;;
38499;SDS011;24269;51.894;4.622;2022-11-15T12:19:00;4.13;;;0.90;;
38499;SDS011;24269;51.894;4.622;2022-11-15T12:21:41;2.63;;;1.00;;
38499;SDS011;24269;51.894;4.622;2022-11-15T12:27:01;2.45;;;0.90;;
38499;SDS011;24269;51.894;4.622;2022-11-15T12:29:39;3.78;;;1.15;;
38499;SDS011;24269;51.894;4.622;2022-11-15T12:32:18;4.65;;;1.08;;
38499;SDS011;24269;51.894;4.622;2022-11-15T12:35:00;2.88;;;1.33;;
38499;SDS011;24269;51.894;4.622;2022-11-15T12:42:42;3.38;;;1.00;;
38499;SDS011;24269;51.894;4.622;2022-11-15T12:45:43;2.22;;;0.90;;
38499;SDS011;24269;51.894;4.622;2022-11-15T12:53:29;3.65;;;1.00;;
38499;SDS011;24269;51.894;4.622;2022-11-15T13:14:58;4.88;;;1.60;;
38499;SDS011;24269;51.894;4.622;2022-11-15T13:17:49;4.53;;;1.63;;
38499;SDS011;24269;51.894;4.622;2022-11-15T13:20:18;1.83;;;1.33;;
38499;SDS011;24269;51.894;4.622;2022-11-15T13:23:01;3.17;;;1.00;;
38499;SDS011;24269;51.894;4.622;2022-11-15T13:30:50;7.03;;;1.70;;
38499;SDS011;24269;51.894;4.622;2022-11-15T13:33:36;3.97;;;1.25;;
38499;SDS011;24269;51.894;4.622;2022-11-15T13:36:08;3.90;;;0.90;;
38499;SDS011;24269;51.894;4.622;2022-11-15T13:38:59;4.18;;;0.82;;
38499;SDS011;24269;51.894;4.622;2022-11-15T13:41:28;3.53;;;0.95;;
38499;SDS011;24269;51.894;4.622;2022-11-15T13:43:57;4.70;;;1.05;;
38499;SDS011;24269;51.894;4.622;2022-11-15T13:46:28;2.28;;;1.00;;
38499;SDS011;24269;51.894;4.622;2022-11-15T13:56:48;3.63;;;0.80;;
38499;SDS011;24269;51.894;4.622;2022-11-15T13:59:26;4.05;;;1.13;;
38499;SDS011;24269;51.894;4.622;2022-11-15T14:01:55;3.00;;;1.00;;
38499;SDS011;24269;51.894;4.622;2022-11-15T14:04:24;2.72;;;0.90;;
38499;SDS011;24269;51.894;4.622;2022-11-15T14:06:57;5.03;;;1.17;;
38499;SDS011;24269;51.894;4.622;2022-11-15T14:09:39;4.18;;;0.80;;
38499;SDS011;24269;51.894;4.622;2022-11-15T14:14:57;2.55;;;0.70;;
38499;SDS011;24269;51.894;4.622;2022-11-15T14:22:24;3.28;;;0.70;;
38499;SDS011;24269;51.894;4.622;2022-11-15T14:25:07;4.88;;;1.45;;
38499;SDS011;24269;51.894;4.622;2022-11-15T14:27:40;3.45;;;0.70;;
38499;SDS011;24269;51.894;4.622;2022-11-15T14:30:17;3.97;;;0.65;;
38499;SDS011;24269;51.894;4.622;2022-11-15T14:35:14;3.83;;;0.80;;
38499;SDS011;24269;51.894;4.622;2022-11-15T14:37:41;2.20;;;0.60;;
38499;SDS011;24269;51.894;4.622;2022-11-15T14:40:08;3.17;;;0.70;;
38499;SDS011;24269;51.894;4.622;2022-11-15T14:42:42;4.40;;;1.00;;
38499;SDS011;24269;51.894;4.622;2022-11-15T14:45:16;2.38;;;0.85;;
38499;SDS011;24269;51.894;4.622;2022-11-15T14:47:44;2.80;;;0.93;;
38499;SDS011;24269;51.894;4.622;2022-11-15T14:50:20;2.85;;;0.95;;
38499;SDS011;24269;51.894;4.622;2022-11-15T14:52:47;2.55;;;0.80;;
38499;SDS011;24269;51.894;4.622;2022-11-15T14:55:26;4.45;;;0.70;;
38499;SDS011;24269;51.894;4.622;2022-11-15T14:57:56;5.25;;;1.10;;
38499;SDS011;24269;51.894;4.622;2022-11-15T15:00:24;4.57;;;0.90;;
38499;SDS011;24269;51.894;4.622;2022-11-15T15:02:51;3.95;;;1.02;;
38499;SDS011;24269;51.894;4.622;2022-11-15T15:07:46;1.10;;;0.60;;
38499;SDS011;24269;51.894;4.622;2022-11-15T15:10:14;6.80;;;1.20;;
38499;SDS011;24269;51.894;4.622;2022-11-15T15:12:42;3.28;;;0.70;;
38499;SDS011;24269;51.894;4.622;2022-11-15T15:15:21;2.17;;;0.80;;
38499;SDS011;24269;51.894;4.622;2022-11-15T15:17:50;2.13;;;0.70;;
38499;SDS011;24269;51.894;4.622;2022-11-15T15:20:17;1.10;;;0.52;;
38499;SDS011;24269;51.894;4.622;2022-11-15T15:22:43;3.97;;;0.70;;
38499;SDS011;24269;51.894;4.622;2022-11-15T15:25:20;2.85;;;0.65;;
38499;SDS011;24269;51.894;4.622;2022-11-15T15:27:48;2.72;;;0.70;;
38499;SDS011;24269;51.894;4.622;2022-11-15T15:30:14;5.25;;;0.70;;
38499;SDS011;24269;51.894;4.622;2022-11-15T15:32:40;2.38;;;1.00;;
38499;SDS011;24269;51.894;4.622;2022-11-15T15:35:05;2.25;;;0.82;;
38499;SDS011;24269;51.894;4.622;2022-11-15T15:37:35;1.33;;;0.70;;
38499;SDS011;24269;51.894;4.622;2022-11-15T15:40:01;4.15;;;0.80;;
38499;SDS011;24269;51.894;4.622;2022-11-15T15:42:26;2.13;;;0.80;;
38499;SDS011;24269;51.894;4.622;2022-11-15T15:44:52;2.17;;;0.60;;
38499;SDS011;24269;51.894;4.622;2022-11-15T15:47:22;2.15;;;0.60;;
38499;SDS011;24269;51.894;4.622;2022-11-15T15:49:48;3.80;;;0.90;;
38499;SDS011;24269;51.894;4.622;2022-11-15T15:52:15;3.17;;;1.00;;
38499;SDS011;24269;51.894;4.622;2022-11-15T15:54:41;2.42;;;0.93;;
38499;SDS011;24269;51.894;4.622;2022-11-15T15:57:08;3.20;;;0.90;;
38499;SDS011;24269;51.894;4.622;2022-11-15T15:59:36;4.78;;;0.90;;
38499;SDS011;24269;51.894;4.622;2022-11-15T16:02:01;4.88;;;1.38;;
38499;SDS011;24269;51.894;4.622;2022-11-15T16:04:27;2.42;;;0.90;;
38499;SDS011;24269;51.894;4.622;2022-11-15T16:06:57;3.08;;;0.93;;
38499;SDS011;24269;51.894;4.622;2022-11-15T16:09:26;3.20;;;0.80;;
38499;SDS011;24269;51.894;4.622;2022-11-15T16:12:18;5.10;;;0.80;;
38499;SDS011;24269;51.894;4.622;2022-11-15T16:14:44;3.33;;;1.08;;
38499;SDS011;24269;51.894;4.622;2022-11-15T16:17:16;1.75;;;0.85;;
38499;SDS011;24269;51.894;4.622;2022-11-15T16:19:44;5.53;;;1.20;;
38499;SDS011;24269;51.894;4.622;2022-11-15T16:22:10;2.45;;;0.90;;
38499;SDS011;24269;51.894;4.622;2022-11-15T16:24:35;3.13;;;0.88;;
38499;SDS011;24269;51.894;4.622;2022-11-15T16:27:01;3.45;;;0.93;;
38499;SDS011;24269;51.894;4.622;2022-11-15T16:29:27;2.80;;;1.13;;
38499;SDS011;24269;51.894;4.622;2022-11-15T16:31:53;2.78;;;1.05;;
38499;SDS011;24269;51.894;4.622;2022-11-15T16:34:19;3.33;;;1.30;;
38499;SDS011;24269;51.894;4.622;2022-11-15T16:36:44;3.17;;;1.30;;
38499;SDS011;24269;51.894;4.622;2022-11-15T16:39:13;4.97;;;1.40;;
38499;SDS011;24269;51.894;4.622;2022-11-15T16:41:40;2.85;;;1.35;;
38499;SDS011;24269;51.894;4.622;2022-11-15T16:44:08;2.33;;;1.40;;
38499;SDS011;24269;51.894;4.622;2022-11-15T16:46:33;5.28;;;1.48;;
38499;SDS011;24269;51.894;4.622;2022-11-15T16:48:59;2.75;;;1.13;;
38499;SDS011;24269;51.894;4.622;2022-11-15T16:51:25;3.65;;;1.73;;
38499;SDS011;24269;51.894;4.622;2022-11-15T16:53:50;1.70;;;0.90;;
38499;SDS011;24269;51.894;4.622;2022-11-15T16:56:29;3.08;;;1.17;;
38499;SDS011;24269;51.894;4.622;2022-11-15T16:58:55;3.33;;;1.13;;
38499;SDS011;24269;51.894;4.622;2022-11-15T17:01:35;3.15;;;1.35;;
38499;SDS011;24269;51.894;4.622;2022-11-15T17:04:14;3.03;;;1.33;;
38499;SDS011;24269;51.894;4.622;2022-11-15T17:06:42;3.20;;;1.25;;
38499;SDS011;24269;51.894;4.622;2022-11-15T17:09:19;2.28;;;1.10;;
38499;SDS011;24269;51.894;4.622;2022-11-15T17:11:48;4.03;;;1.40;;
38499;SDS011;24269;51.894;4.622;2022-11-15T17:14:14;2.80;;;1.50;;
38499;SDS011;24269;51.894;4.622;2022-11-15T17:16:40;5.97;;;2.20;;
38499;SDS011;24269;51.894;4.622;2022-11-15T17:19:12;3.10;;;1.42;;
38499;SDS011;24269;51.894;4.622;2022-11-15T17:21:39;4.07;;;1.92;;
38499;SDS011;24269;51.894;4.622;2022-11-15T17:24:05;4.43;;;1.70;;
38499;SDS011;24269;51.894;4.622;2022-11-15T17:26:30;4.72;;;1.98;;
38499;SDS011;24269;51.894;4.622;2022-11-15T17:28:56;4.88;;;2.25;;
38499;SDS011;24269;51.894;4.622;2022-11-15T17:31:23;3.85;;;2.40;;
38499;SDS011;24269;51.894;4.622;2022-11-15T17:33:49;6.05;;;2.03;;